Terminal Aerodrome Forecast
Issued by NWS Wilmington, OH

Current Version | Previous Version | Graphics & Text | Print | Product List | Glossary On
Versions: 1 2 3 4 5 6 7 8 9 10 11 12 13 14 15 16 17 18 19 20 21 22 23 24 25 26 27 28
451
FTUS41 KILN 210242 AAA
TAFDAY
TAF AMD
KDAY 210242Z 2103/2124 21007KT P6SM VCSH SCT080 BKN110
      TEMPO 2104/2106 P6SM -SHRA BKN060
     FM210600 21006KT P6SM BKN130
     FM211500 24008KT P6SM SCT040 BKN150=

USA.gov is the U.S. government's official web portal to all federal, state and local government web resources and services.